Hancock, Vermont
Current Conditions -  °F | °C
As of 7:15 PM on Saturday 20 Dec 2014 (Local Time) from K6B0 Reporting Station
Clear Clear  
Wind Chill: 18°   Ceiling: Unl
Heat Index: 18°   Visibility: 10mi
Dew Point: 18°   Wind: 0mph
Humidity: 99%   Direction: NA
Pressure: 30.3"   Gusts: NA
Location:  43.93°N, 72.84°W
Report Text: K6B0 210015Z AUTO 00000KT 10SM CLR M08/M08 A3030 RMK AO2 T10781079
Loading
Personal Weather Stations






























Interactive Weather Map New forecast layout! Learn more

10-Day Weather Forecast

Advertisements
Track Severe Weather on mobile